sensor_id;sensor_type;location;lat;lon;timestamp;P1;durP1;ratioP1;P2;durP2;ratioP2
7487;SDS011;3785;52.260;4.728;2022-11-25T00:02:43;6.57;;;1.50;;
7487;SDS011;3785;52.260;4.728;2022-11-25T00:09:32;4.10;;;1.42;;
7487;SDS011;3785;52.260;4.728;2022-11-25T00:12:52;3.55;;;1.35;;
7487;SDS011;3785;52.260;4.728;2022-11-25T00:16:14;7.25;;;1.23;;
7487;SDS011;3785;52.260;4.728;2022-11-25T00:19:36;5.57;;;1.60;;
7487;SDS011;3785;52.260;4.728;2022-11-25T00:22:56;3.08;;;1.10;;
7487;SDS011;3785;52.260;4.728;2022-11-25T00:26:17;9.05;;;1.30;;
7487;SDS011;3785;52.260;4.728;2022-11-25T00:29:38;5.28;;;1.67;;
7487;SDS011;3785;52.260;4.728;2022-11-25T00:32:59;4.32;;;1.52;;
7487;SDS011;3785;52.260;4.728;2022-11-25T00:39:44;5.20;;;1.40;;
7487;SDS011;3785;52.260;4.728;2022-11-25T00:43:04;4.95;;;1.65;;
7487;SDS011;3785;52.260;4.728;2022-11-25T00:46:43;2.72;;;1.20;;
7487;SDS011;3785;52.260;4.728;2022-11-25T00:50:04;5.40;;;1.30;;
7487;SDS011;3785;52.260;4.728;2022-11-25T00:53:25;4.40;;;1.20;;
7487;SDS011;3785;52.260;4.728;2022-11-25T00:56:45;3.35;;;1.20;;
7487;SDS011;3785;52.260;4.728;2022-11-25T01:00:06;5.35;;;1.48;;
7487;SDS011;3785;52.260;4.728;2022-11-25T01:03:28;8.73;;;1.70;;
7487;SDS011;3785;52.260;4.728;2022-11-25T01:06:49;2.78;;;0.93;;
7487;SDS011;3785;52.260;4.728;2022-11-25T01:10:10;5.82;;;1.60;;
7487;SDS011;3785;52.260;4.728;2022-11-25T01:13:30;4.03;;;1.50;;
7487;SDS011;3785;52.260;4.728;2022-11-25T01:16:52;3.47;;;1.52;;
7487;SDS011;3785;52.260;4.728;2022-11-25T01:20:14;6.32;;;1.52;;
7487;SDS011;3785;52.260;4.728;2022-11-25T01:23:35;3.83;;;1.45;;
7487;SDS011;3785;52.260;4.728;2022-11-25T01:26:56;4.38;;;1.48;;
7487;SDS011;3785;52.260;4.728;2022-11-25T01:30:16;4.53;;;1.50;;
7487;SDS011;3785;52.260;4.728;2022-11-25T01:33:37;5.72;;;2.20;;
7487;SDS011;3785;52.260;4.728;2022-11-25T01:36:58;3.95;;;1.67;;
7487;SDS011;3785;52.260;4.728;2022-11-25T01:40:18;5.80;;;2.13;;
7487;SDS011;3785;52.260;4.728;2022-11-25T01:43:39;4.28;;;1.55;;
7487;SDS011;3785;52.260;4.728;2022-11-25T01:47:01;3.45;;;1.50;;
7487;SDS011;3785;52.260;4.728;2022-11-25T01:50:25;5.93;;;1.67;;
7487;SDS011;3785;52.260;4.728;2022-11-25T01:53:47;3.90;;;1.45;;
7487;SDS011;3785;52.260;4.728;2022-11-25T01:57:09;3.92;;;1.88;;
7487;SDS011;3785;52.260;4.728;2022-11-25T02:00:32;3.47;;;1.90;;
7487;SDS011;3785;52.260;4.728;2022-11-25T02:03:53;3.50;;;1.55;;
7487;SDS011;3785;52.260;4.728;2022-11-25T02:07:35;2.90;;;1.60;;
7487;SDS011;3785;52.260;4.728;2022-11-25T02:10:57;2.90;;;1.42;;
7487;SDS011;3785;52.260;4.728;2022-11-25T02:14:17;3.00;;;1.40;;
7487;SDS011;3785;52.260;4.728;2022-11-25T02:17:39;4.13;;;1.33;;
7487;SDS011;3785;52.260;4.728;2022-11-25T02:21:00;5.03;;;1.90;;
7487;SDS011;3785;52.260;4.728;2022-11-25T02:31:33;3.45;;;1.70;;
7487;SDS011;3785;52.260;4.728;2022-11-25T02:34:53;3.25;;;1.60;;
7487;SDS011;3785;52.260;4.728;2022-11-25T02:38:15;3.25;;;1.80;;
7487;SDS011;3785;52.260;4.728;2022-11-25T02:41:41;5.28;;;1.88;;
7487;SDS011;3785;52.260;4.728;2022-11-25T02:45:03;6.60;;;1.92;;
7487;SDS011;3785;52.260;4.728;2022-11-25T02:48:25;4.15;;;2.10;;
7487;SDS011;3785;52.260;4.728;2022-11-25T02:51:47;4.28;;;2.25;;
7487;SDS011;3785;52.260;4.728;2022-11-25T02:55:08;3.58;;;1.75;;
7487;SDS011;3785;52.260;4.728;2022-11-25T02:58:28;4.60;;;2.63;;
7487;SDS011;3785;52.260;4.728;2022-11-25T03:01:49;4.53;;;1.73;;
7487;SDS011;3785;52.260;4.728;2022-11-25T03:05:09;9.15;;;1.95;;
7487;SDS011;3785;52.260;4.728;2022-11-25T03:08:30;4.00;;;1.40;;
7487;SDS011;3785;52.260;4.728;2022-11-25T03:11:51;2.85;;;1.60;;
7487;SDS011;3785;52.260;4.728;2022-11-25T03:15:30;3.75;;;1.70;;
7487;SDS011;3785;52.260;4.728;2022-11-25T03:18:51;3.53;;;1.50;;
7487;SDS011;3785;52.260;4.728;2022-11-25T03:22:11;3.95;;;1.70;;
7487;SDS011;3785;52.260;4.728;2022-11-25T03:25:32;4.53;;;1.70;;
7487;SDS011;3785;52.260;4.728;2022-11-25T03:28:54;6.03;;;1.92;;
7487;SDS011;3785;52.260;4.728;2022-11-25T03:32:15;4.47;;;1.95;;
7487;SDS011;3785;52.260;4.728;2022-11-25T03:35:35;4.57;;;2.05;;
7487;SDS011;3785;52.260;4.728;2022-11-25T03:38:56;7.13;;;1.70;;
7487;SDS011;3785;52.260;4.728;2022-11-25T03:42:16;3.92;;;1.35;;
7487;SDS011;3785;52.260;4.728;2022-11-25T03:45:37;4.07;;;1.13;;
7487;SDS011;3785;52.260;4.728;2022-11-25T03:48:57;5.43;;;1.48;;
7487;SDS011;3785;52.260;4.728;2022-11-25T03:52:18;3.75;;;1.50;;
7487;SDS011;3785;52.260;4.728;2022-11-25T03:55:39;2.10;;;1.13;;
7487;SDS011;3785;52.260;4.728;2022-11-25T03:58:59;3.67;;;1.00;;
7487;SDS011;3785;52.260;4.728;2022-11-25T04:02:20;4.45;;;1.10;;
7487;SDS011;3785;52.260;4.728;2022-11-25T04:05:40;1.65;;;0.80;;
7487;SDS011;3785;52.260;4.728;2022-11-25T04:09:01;3.30;;;1.33;;
7487;SDS011;3785;52.260;4.728;2022-11-25T04:12:22;3.00;;;0.75;;
7487;SDS011;3785;52.260;4.728;2022-11-25T04:16:01;2.88;;;0.80;;
7487;SDS011;3785;52.260;4.728;2022-11-25T04:19:22;3.47;;;1.20;;
7487;SDS011;3785;52.260;4.728;2022-11-25T04:22:42;3.38;;;1.00;;
7487;SDS011;3785;52.260;4.728;2022-11-25T04:26:03;3.30;;;1.23;;
7487;SDS011;3785;52.260;4.728;2022-11-25T04:29:23;2.88;;;0.65;;
7487;SDS011;3785;52.260;4.728;2022-11-25T04:32:44;0.95;;;0.68;;
7487;SDS011;3785;52.260;4.728;2022-11-25T04:36:05;3.13;;;1.15;;
7487;SDS011;3785;52.260;4.728;2022-11-25T04:39:26;1.58;;;0.68;;
7487;SDS011;3785;52.260;4.728;2022-11-25T04:42:46;3.55;;;0.88;;
7487;SDS011;3785;52.260;4.728;2022-11-25T04:46:08;1.75;;;0.82;;
7487;SDS011;3785;52.260;4.728;2022-11-25T04:49:31;4.05;;;1.00;;
7487;SDS011;3785;52.260;4.728;2022-11-25T04:52:51;1.63;;;1.02;;
7487;SDS011;3785;52.260;4.728;2022-11-25T04:56:16;2.67;;;0.90;;
7487;SDS011;3785;52.260;4.728;2022-11-25T04:59:37;2.47;;;1.08;;
7487;SDS011;3785;52.260;4.728;2022-11-25T05:02:58;2.22;;;0.60;;
7487;SDS011;3785;52.260;4.728;2022-11-25T05:06:18;3.83;;;0.93;;
7487;SDS011;3785;52.260;4.728;2022-11-25T05:09:39;2.80;;;1.00;;
7487;SDS011;3785;52.260;4.728;2022-11-25T05:13:00;0.95;;;0.45;;
7487;SDS011;3785;52.260;4.728;2022-11-25T05:16:20;2.88;;;0.70;;
7487;SDS011;3785;52.260;4.728;2022-11-25T05:19:41;1.55;;;0.63;;
7487;SDS011;3785;52.260;4.728;2022-11-25T05:23:01;1.05;;;0.45;;
7487;SDS011;3785;52.260;4.728;2022-11-25T05:26:22;2.67;;;0.73;;
7487;SDS011;3785;52.260;4.728;2022-11-25T05:29:42;0.98;;;0.52;;
7487;SDS011;3785;52.260;4.728;2022-11-25T05:33:03;3.58;;;0.75;;
7487;SDS011;3785;52.260;4.728;2022-11-25T05:36:24;2.55;;;0.80;;
7487;SDS011;3785;52.260;4.728;2022-11-25T05:39:44;3.45;;;0.90;;
7487;SDS011;3785;52.260;4.728;2022-11-25T05:43:05;1.52;;;0.68;;
7487;SDS011;3785;52.260;4.728;2022-11-25T05:46:25;1.40;;;0.80;;
7487;SDS011;3785;52.260;4.728;2022-11-25T05:49:46;2.75;;;0.90;;
7487;SDS011;3785;52.260;4.728;2022-11-25T05:53:06;1.83;;;0.63;;
7487;SDS011;3785;52.260;4.728;2022-11-25T05:56:27;2.15;;;0.60;;
7487;SDS011;3785;52.260;4.728;2022-11-25T05:59:48;1.35;;;0.63;;
7487;SDS011;3785;52.260;4.728;2022-11-25T06:03:08;2.80;;;1.10;;
7487;SDS011;3785;52.260;4.728;2022-11-25T06:06:29;1.85;;;0.75;;
7487;SDS011;3785;52.260;4.728;2022-11-25T06:09:50;3.03;;;0.88;;
7487;SDS011;3785;52.260;4.728;2022-11-25T06:13:10;2.97;;;0.90;;
7487;SDS011;3785;52.260;4.728;2022-11-25T06:16:31;1.92;;;0.80;;
7487;SDS011;3785;52.260;4.728;2022-11-25T06:19:51;1.17;;;0.68;;
7487;SDS011;3785;52.260;4.728;2022-11-25T06:23:12;2.55;;;1.00;;
7487;SDS011;3785;52.260;4.728;2022-11-25T06:26:32;2.08;;;0.93;;
7487;SDS011;3785;52.260;4.728;2022-11-25T06:29:53;1.70;;;0.95;;
7487;SDS011;3785;52.260;4.728;2022-11-25T06:33:13;2.53;;;1.10;;
7487;SDS011;3785;52.260;4.728;2022-11-25T06:36:34;2.38;;;0.80;;
7487;SDS011;3785;52.260;4.728;2022-11-25T06:39:54;1.45;;;0.80;;
7487;SDS011;3785;52.260;4.728;2022-11-25T06:43:15;2.60;;;1.15;;
7487;SDS011;3785;52.260;4.728;2022-11-25T06:46:36;1.88;;;0.82;;
7487;SDS011;3785;52.260;4.728;2022-11-25T06:49:56;3.72;;;1.17;;
7487;SDS011;3785;52.260;4.728;2022-11-25T06:53:17;2.13;;;1.00;;
7487;SDS011;3785;52.260;4.728;2022-11-25T06:56:37;3.00;;;1.20;;
7487;SDS011;3785;52.260;4.728;2022-11-25T06:59:58;2.13;;;1.15;;
7487;SDS011;3785;52.260;4.728;2022-11-25T07:03:19;2.00;;;1.10;;
7487;SDS011;3785;52.260;4.728;2022-11-25T07:06:39;1.75;;;1.00;;
7487;SDS011;3785;52.260;4.728;2022-11-25T07:10:00;1.80;;;0.95;;
7487;SDS011;3785;52.260;4.728;2022-11-25T07:13:21;2.10;;;1.20;;
7487;SDS011;3785;52.260;4.728;2022-11-25T07:16:42;2.17;;;0.95;;
7487;SDS011;3785;52.260;4.728;2022-11-25T07:20:04;4.53;;;1.58;;
7487;SDS011;3785;52.260;4.728;2022-11-25T07:23:27;3.17;;;1.27;;
7487;SDS011;3785;52.260;4.728;2022-11-25T07:26:48;2.40;;;0.90;;
7487;SDS011;3785;52.260;4.728;2022-11-25T07:30:08;2.88;;;1.00;;
7487;SDS011;3785;52.260;4.728;2022-11-25T07:33:29;4.32;;;1.10;;
7487;SDS011;3785;52.260;4.728;2022-11-25T07:36:50;3.88;;;1.13;;
7487;SDS011;3785;52.260;4.728;2022-11-25T07:40:11;5.32;;;1.25;;
7487;SDS011;3785;52.260;4.728;2022-11-25T07:43:32;1.80;;;1.10;;
7487;SDS011;3785;52.260;4.728;2022-11-25T07:46:53;5.10;;;0.98;;
7487;SDS011;3785;52.260;4.728;2022-11-25T07:50:13;2.75;;;1.10;;
7487;SDS011;3785;52.260;4.728;2022-11-25T07:53:34;4.55;;;1.48;;
7487;SDS011;3785;52.260;4.728;2022-11-25T07:56:54;2.83;;;1.40;;
7487;SDS011;3785;52.260;4.728;2022-11-25T08:00:15;5.00;;;1.50;;
7487;SDS011;3785;52.260;4.728;2022-11-25T08:03:37;3.95;;;1.27;;
7487;SDS011;3785;52.260;4.728;2022-11-25T08:06:59;3.50;;;1.25;;
7487;SDS011;3785;52.260;4.728;2022-11-25T08:10:19;6.30;;;1.27;;
7487;SDS011;3785;52.260;4.728;2022-11-25T08:13:40;3.58;;;1.10;;
7487;SDS011;3785;52.260;4.728;2022-11-25T08:17:01;4.30;;;1.38;;
7487;SDS011;3785;52.260;4.728;2022-11-25T08:20:24;3.75;;;1.20;;
7487;SDS011;3785;52.260;4.728;2022-11-25T08:23:45;2.53;;;0.90;;
7487;SDS011;3785;52.260;4.728;2022-11-25T08:27:11;4.28;;;1.20;;
7487;SDS011;3785;52.260;4.728;2022-11-25T08:30:31;4.70;;;1.33;;
7487;SDS011;3785;52.260;4.728;2022-11-25T08:33:52;2.28;;;1.17;;
7487;SDS011;3785;52.260;4.728;2022-11-25T08:37:13;4.25;;;1.08;;
7487;SDS011;3785;52.260;4.728;2022-11-25T08:40:34;1.85;;;0.98;;
7487;SDS011;3785;52.260;4.728;2022-11-25T08:43:56;3.70;;;0.75;;
7487;SDS011;3785;52.260;4.728;2022-11-25T08:47:18;2.83;;;0.98;;
7487;SDS011;3785;52.260;4.728;2022-11-25T08:50:38;3.15;;;0.80;;
7487;SDS011;3785;52.260;4.728;2022-11-25T08:54:00;2.75;;;1.17;;
7487;SDS011;3785;52.260;4.728;2022-11-25T08:57:21;1.80;;;0.90;;
7487;SDS011;3785;52.260;4.728;2022-11-25T09:00:42;3.50;;;1.20;;
7487;SDS011;3785;52.260;4.728;2022-11-25T09:04:03;3.40;;;0.82;;
7487;SDS011;3785;52.260;4.728;2022-11-25T09:07:24;3.92;;;1.13;;
7487;SDS011;3785;52.260;4.728;2022-11-25T09:10:44;3.50;;;1.02;;
7487;SDS011;3785;52.260;4.728;2022-11-25T09:14:05;4.97;;;0.82;;
7487;SDS011;3785;52.260;4.728;2022-11-25T09:17:25;3.95;;;0.90;;
7487;SDS011;3785;52.260;4.728;2022-11-25T09:20:46;3.08;;;0.90;;
7487;SDS011;3785;52.260;4.728;2022-11-25T09:24:07;1.08;;;0.70;;
7487;SDS011;3785;52.260;4.728;2022-11-25T09:27:29;3.30;;;0.63;;
7487;SDS011;3785;52.260;4.728;2022-11-25T09:30:50;4.18;;;0.90;;
7487;SDS011;3785;52.260;4.728;2022-11-25T09:34:11;2.10;;;0.88;;
7487;SDS011;3785;52.260;4.728;2022-11-25T09:37:32;4.18;;;0.90;;
7487;SDS011;3785;52.260;4.728;2022-11-25T09:40:55;3.42;;;0.88;;
7487;SDS011;3785;52.260;4.728;2022-11-25T09:44:40;3.45;;;1.20;;
7487;SDS011;3785;52.260;4.728;2022-11-25T09:51:52;4.70;;;1.10;;
7487;SDS011;3785;52.260;4.728;2022-11-25T09:55:23;5.32;;;1.20;;
7487;SDS011;3785;52.260;4.728;2022-11-25T09:58:52;5.68;;;1.05;;
7487;SDS011;3785;52.260;4.728;2022-11-25T10:02:26;6.32;;;1.38;;
7487;SDS011;3785;52.260;4.728;2022-11-25T10:09:35;2.78;;;0.90;;
7487;SDS011;3785;52.260;4.728;2022-11-25T10:12:57;4.50;;;1.10;;
7487;SDS011;3785;52.260;4.728;2022-11-25T10:17:05;2.53;;;0.95;;
7487;SDS011;3785;52.260;4.728;2022-11-25T10:23:42;4.80;;;0.93;;
7487;SDS011;3785;52.260;4.728;2022-11-25T10:27:03;2.95;;;0.77;;
7487;SDS011;3785;52.260;4.728;2022-11-25T10:30:35;4.35;;;0.90;;
7487;SDS011;3785;52.260;4.728;2022-11-25T10:34:06;7.18;;;1.23;;
7487;SDS011;3785;52.260;4.728;2022-11-25T10:37:43;6.03;;;1.52;;
7487;SDS011;3785;52.260;4.728;2022-11-25T10:41:04;5.00;;;1.45;;
7487;SDS011;3785;52.260;4.728;2022-11-25T10:44:27;6.00;;;1.17;;
7487;SDS011;3785;52.260;4.728;2022-11-25T10:47:56;5.75;;;1.33;;
7487;SDS011;3785;52.260;4.728;2022-11-25T10:58:37;7.38;;;1.40;;
7487;SDS011;3785;52.260;4.728;2022-11-25T11:05:46;4.00;;;1.05;;
7487;SDS011;3785;52.260;4.728;2022-11-25T11:12:57;4.28;;;1.33;;
7487;SDS011;3785;52.260;4.728;2022-11-25T11:16:24;9.70;;;1.80;;
7487;SDS011;3785;52.260;4.728;2022-11-25T11:19:58;10.93;;;1.52;;
7487;SDS011;3785;52.260;4.728;2022-11-25T11:23:45;6.38;;;1.30;;
7487;SDS011;3785;52.260;4.728;2022-11-25T11:27:21;4.90;;;1.30;;
7487;SDS011;3785;52.260;4.728;2022-11-25T11:30:52;6.30;;;1.50;;
7487;SDS011;3785;52.260;4.728;2022-11-25T11:38:38;5.32;;;1.42;;
7487;SDS011;3785;52.260;4.728;2022-11-25T11:46:50;7.45;;;1.92;;
7487;SDS011;3785;52.260;4.728;2022-11-25T11:50:24;6.53;;;1.52;;
7487;SDS011;3785;52.260;4.728;2022-11-25T12:04:42;5.15;;;1.38;;
7487;SDS011;3785;52.260;4.728;2022-11-25T12:12:13;7.95;;;1.48;;
7487;SDS011;3785;52.260;4.728;2022-11-25T12:15:40;5.53;;;1.10;;
7487;SDS011;3785;52.260;4.728;2022-11-25T12:19:20;7.75;;;1.23;;
7487;SDS011;3785;52.260;4.728;2022-11-25T12:22:52;5.70;;;1.70;;
7487;SDS011;3785;52.260;4.728;2022-11-25T12:26:21;6.97;;;1.45;;
7487;SDS011;3785;52.260;4.728;2022-11-25T12:33:23;5.63;;;1.63;;
7487;SDS011;3785;52.260;4.728;2022-11-25T12:36:47;5.55;;;1.13;;
7487;SDS011;3785;52.260;4.728;2022-11-25T12:40:12;5.15;;;0.80;;
7487;SDS011;3785;52.260;4.728;2022-11-25T12:46:59;2.88;;;0.98;;
7487;SDS011;3785;52.260;4.728;2022-11-25T12:50:28;3.08;;;0.77;;
7487;SDS011;3785;52.260;4.728;2022-11-25T13:01:35;6.00;;;1.30;;
7487;SDS011;3785;52.260;4.728;2022-11-25T13:16:37;6.70;;;1.13;;
7487;SDS011;3785;52.260;4.728;2022-11-25T13:23:47;6.28;;;1.08;;
7487;SDS011;3785;52.260;4.728;2022-11-25T13:27:31;6.70;;;1.50;;
7487;SDS011;3785;52.260;4.728;2022-11-25T13:30:55;4.43;;;1.23;;
7487;SDS011;3785;52.260;4.728;2022-11-25T13:34:36;3.67;;;0.90;;
7487;SDS011;3785;52.260;4.728;2022-11-25T13:37:57;9.35;;;1.15;;
7487;SDS011;3785;52.260;4.728;2022-11-25T13:41:22;6.45;;;1.17;;
7487;SDS011;3785;52.260;4.728;2022-11-25T13:44:53;4.90;;;1.02;;
7487;SDS011;3785;52.260;4.728;2022-11-25T13:48:28;6.18;;;1.30;;
7487;SDS011;3785;52.260;4.728;2022-11-25T13:51:50;4.50;;;0.85;;
7487;SDS011;3785;52.260;4.728;2022-11-25T13:55:23;6.22;;;1.20;;
7487;SDS011;3785;52.260;4.728;2022-11-25T14:02:32;6.97;;;1.00;;
7487;SDS011;3785;52.260;4.728;2022-11-25T14:16:38;3.17;;;1.00;;
7487;SDS011;3785;52.260;4.728;2022-11-25T14:20:26;5.00;;;0.90;;
7487;SDS011;3785;52.260;4.728;2022-11-25T14:28:06;3.53;;;0.65;;
7487;SDS011;3785;52.260;4.728;2022-11-25T14:31:31;2.60;;;0.98;;
7487;SDS011;3785;52.260;4.728;2022-11-25T14:34:59;5.22;;;0.80;;
7487;SDS011;3785;52.260;4.728;2022-11-25T14:38:37;4.18;;;1.00;;
7487;SDS011;3785;52.260;4.728;2022-11-25T14:45:27;2.80;;;0.80;;
7487;SDS011;3785;52.260;4.728;2022-11-25T14:49:00;3.88;;;0.85;;
7487;SDS011;3785;52.260;4.728;2022-11-25T14:52:23;3.70;;;0.80;;
7487;SDS011;3785;52.260;4.728;2022-11-25T14:55:49;6.82;;;1.40;;
7487;SDS011;3785;52.260;4.728;2022-11-25T14:59:09;5.90;;;1.50;;
7487;SDS011;3785;52.260;4.728;2022-11-25T15:02:35;3.88;;;0.85;;
7487;SDS011;3785;52.260;4.728;2022-11-25T15:06:03;2.80;;;0.98;;
7487;SDS011;3785;52.260;4.728;2022-11-25T15:09:31;5.60;;;1.00;;
7487;SDS011;3785;52.260;4.728;2022-11-25T15:13:05;3.60;;;0.85;;
7487;SDS011;3785;52.260;4.728;2022-11-25T15:16:41;4.80;;;1.10;;
7487;SDS011;3785;52.260;4.728;2022-11-25T15:20:12;4.10;;;1.23;;
7487;SDS011;3785;52.260;4.728;2022-11-25T15:23:36;5.60;;;1.65;;
7487;SDS011;3785;52.260;4.728;2022-11-25T15:27:00;6.00;;;2.25;;
7487;SDS011;3785;52.260;4.728;2022-11-25T15:33:46;5.22;;;1.40;;
7487;SDS011;3785;52.260;4.728;2022-11-25T15:37:10;4.55;;;1.27;;
7487;SDS011;3785;52.260;4.728;2022-11-25T15:44:02;3.20;;;1.02;;
7487;SDS011;3785;52.260;4.728;2022-11-25T15:47:24;2.40;;;1.10;;
7487;SDS011;3785;52.260;4.728;2022-11-25T15:50:46;5.60;;;1.30;;
7487;SDS011;3785;52.260;4.728;2022-11-25T15:57:38;4.80;;;1.77;;
7487;SDS011;3785;52.260;4.728;2022-11-25T16:01:01;4.07;;;1.10;;
7487;SDS011;3785;52.260;4.728;2022-11-25T16:04:25;4.28;;;1.23;;
7487;SDS011;3785;52.260;4.728;2022-11-25T16:11:11;6.25;;;1.33;;
7487;SDS011;3785;52.260;4.728;2022-11-25T16:14:38;3.90;;;1.48;;
7487;SDS011;3785;52.260;4.728;2022-11-25T16:17:59;3.80;;;1.15;;
7487;SDS011;3785;52.260;4.728;2022-11-25T16:21:21;5.90;;;1.05;;
7487;SDS011;3785;52.260;4.728;2022-11-25T16:24:50;6.82;;;1.35;;
7487;SDS011;3785;52.260;4.728;2022-11-25T16:28:20;5.43;;;1.65;;
7487;SDS011;3785;52.260;4.728;2022-11-25T16:31:42;9.15;;;2.55;;
7487;SDS011;3785;52.260;4.728;2022-11-25T16:35:11;4.88;;;1.77;;
7487;SDS011;3785;52.260;4.728;2022-11-25T16:38:34;3.42;;;1.50;;
7487;SDS011;3785;52.260;4.728;2022-11-25T16:41:55;2.97;;;1.20;;
7487;SDS011;3785;52.260;4.728;2022-11-25T16:45:21;5.40;;;1.45;;
7487;SDS011;3785;52.260;4.728;2022-11-25T16:48:43;3.88;;;1.90;;
7487;SDS011;3785;52.260;4.728;2022-11-25T16:52:04;6.60;;;1.77;;
7487;SDS011;3785;52.260;4.728;2022-11-25T16:55:25;9.40;;;1.70;;
7487;SDS011;3785;52.260;4.728;2022-11-25T16:58:46;8.65;;;1.80;;
7487;SDS011;3785;52.260;4.728;2022-11-25T17:02:25;8.77;;;3.20;;
7487;SDS011;3785;52.260;4.728;2022-11-25T17:05:45;4.63;;;2.00;;
7487;SDS011;3785;52.260;4.728;2022-11-25T17:09:06;4.57;;;1.85;;
7487;SDS011;3785;52.260;4.728;2022-11-25T17:12:28;7.20;;;1.58;;
7487;SDS011;3785;52.260;4.728;2022-11-25T17:15:50;6.55;;;1.88;;
7487;SDS011;3785;52.260;4.728;2022-11-25T17:19:12;6.88;;;1.75;;
7487;SDS011;3785;52.260;4.728;2022-11-25T17:22:34;8.02;;;1.90;;
7487;SDS011;3785;52.260;4.728;2022-11-25T17:25:54;8.00;;;2.42;;
7487;SDS011;3785;52.260;4.728;2022-11-25T17:29:16;5.80;;;2.17;;
7487;SDS011;3785;52.260;4.728;2022-11-25T17:32:38;8.05;;;2.15;;
7487;SDS011;3785;52.260;4.728;2022-11-25T17:35:58;7.10;;;1.83;;
7487;SDS011;3785;52.260;4.728;2022-11-25T17:39:19;4.63;;;2.00;;
7487;SDS011;3785;52.260;4.728;2022-11-25T17:42:40;7.10;;;1.98;;
7487;SDS011;3785;52.260;4.728;2022-11-25T17:46:01;9.68;;;1.85;;
7487;SDS011;3785;52.260;4.728;2022-11-25T17:49:22;6.32;;;1.55;;
7487;SDS011;3785;52.260;4.728;2022-11-25T17:52:42;3.70;;;1.88;;
7487;SDS011;3785;52.260;4.728;2022-11-25T17:56:22;6.13;;;2.45;;
7487;SDS011;3785;52.260;4.728;2022-11-25T17:59:45;7.00;;;2.60;;
7487;SDS011;3785;52.260;4.728;2022-11-25T18:03:08;6.18;;;2.75;;
7487;SDS011;3785;52.260;4.728;2022-11-25T18:06:29;6.75;;;2.15;;
7487;SDS011;3785;52.260;4.728;2022-11-25T18:09:50;5.15;;;2.00;;
7487;SDS011;3785;52.260;4.728;2022-11-25T18:13:11;9.20;;;1.55;;
7487;SDS011;3785;52.260;4.728;2022-11-25T18:16:31;3.35;;;1.50;;
7487;SDS011;3785;52.260;4.728;2022-11-25T18:19:54;18.35;;;9.43;;
7487;SDS011;3785;52.260;4.728;2022-11-25T18:23:15;12.20;;;4.80;;
7487;SDS011;3785;52.260;4.728;2022-11-25T18:26:43;6.25;;;2.10;;
7487;SDS011;3785;52.260;4.728;2022-11-25T18:30:09;4.80;;;1.63;;
7487;SDS011;3785;52.260;4.728;2022-11-25T18:33:35;6.72;;;2.45;;
7487;SDS011;3785;52.260;4.728;2022-11-25T18:36:56;5.13;;;2.10;;
7487;SDS011;3785;52.260;4.728;2022-11-25T18:40:16;6.20;;;2.10;;
7487;SDS011;3785;52.260;4.728;2022-11-25T18:43:37;5.07;;;2.65;;
7487;SDS011;3785;52.260;4.728;2022-11-25T18:46:57;4.63;;;2.25;;
7487;SDS011;3785;52.260;4.728;2022-11-25T18:50:22;9.70;;;3.58;;
7487;SDS011;3785;52.260;4.728;2022-11-25T18:53:44;15.60;;;8.63;;
7487;SDS011;3785;52.260;4.728;2022-11-25T18:57:04;16.40;;;8.43;;
7487;SDS011;3785;52.260;4.728;2022-11-25T19:00:25;8.05;;;3.90;;
7487;SDS011;3785;52.260;4.728;2022-11-25T19:03:47;6.20;;;3.33;;
7487;SDS011;3785;52.260;4.728;2022-11-25T19:07:10;5.50;;;2.67;;
7487;SDS011;3785;52.260;4.728;2022-11-25T19:10:30;6.93;;;2.70;;
7487;SDS011;3785;52.260;4.728;2022-11-25T19:13:56;6.20;;;2.55;;
7487;SDS011;3785;52.260;4.728;2022-11-25T19:17:47;4.93;;;3.30;;
7487;SDS011;3785;52.260;4.728;2022-11-25T19:21:19;7.00;;;3.22;;
7487;SDS011;3785;52.260;4.728;2022-11-25T19:24:40;7.05;;;3.45;;
7487;SDS011;3785;52.260;4.728;2022-11-25T19:28:01;7.25;;;3.78;;
7487;SDS011;3785;52.260;4.728;2022-11-25T19:31:21;6.32;;;2.80;;
7487;SDS011;3785;52.260;4.728;2022-11-25T19:34:42;6.32;;;2.88;;
7487;SDS011;3785;52.260;4.728;2022-11-25T19:38:16;8.48;;;2.63;;
7487;SDS011;3785;52.260;4.728;2022-11-25T19:41:40;6.68;;;2.63;;
7487;SDS011;3785;52.260;4.728;2022-11-25T19:45:00;7.15;;;2.40;;
7487;SDS011;3785;52.260;4.728;2022-11-25T19:48:22;5.03;;;2.85;;
7487;SDS011;3785;52.260;4.728;2022-11-25T19:51:45;4.28;;;2.40;;
7487;SDS011;3785;52.260;4.728;2022-11-25T19:55:41;4.43;;;2.33;;
7487;SDS011;3785;52.260;4.728;2022-11-25T19:58:55;4.45;;;2.63;;
7487;SDS011;3785;52.260;4.728;2022-11-25T20:02:20;5.45;;;2.67;;
7487;SDS011;3785;52.260;4.728;2022-11-25T20:05:42;7.60;;;3.13;;
7487;SDS011;3785;52.260;4.728;2022-11-25T20:09:02;8.57;;;2.53;;
7487;SDS011;3785;52.260;4.728;2022-11-25T20:12:25;7.13;;;2.25;;
7487;SDS011;3785;52.260;4.728;2022-11-25T20:15:49;5.28;;;2.10;;
7487;SDS011;3785;52.260;4.728;2022-11-25T20:19:15;6.75;;;2.13;;
7487;SDS011;3785;52.260;4.728;2022-11-25T20:22:37;9.77;;;2.97;;
7487;SDS011;3785;52.260;4.728;2022-11-25T20:26:00;8.68;;;2.65;;
7487;SDS011;3785;52.260;4.728;2022-11-25T20:29:21;8.80;;;2.92;;
7487;SDS011;3785;52.260;4.728;2022-11-25T20:32:42;8.90;;;2.92;;
7487;SDS011;3785;52.260;4.728;2022-11-25T20:36:09;6.10;;;2.85;;
7487;SDS011;3785;52.260;4.728;2022-11-25T20:39:37;7.95;;;2.83;;
7487;SDS011;3785;52.260;4.728;2022-11-25T20:42:57;6.85;;;3.10;;
7487;SDS011;3785;52.260;4.728;2022-11-25T20:46:19;7.95;;;3.25;;
7487;SDS011;3785;52.260;4.728;2022-11-25T20:49:46;5.72;;;2.65;;
7487;SDS011;3785;52.260;4.728;2022-11-25T20:53:09;5.05;;;2.50;;
7487;SDS011;3785;52.260;4.728;2022-11-25T20:56:33;6.93;;;3.22;;
7487;SDS011;3785;52.260;4.728;2022-11-25T20:59:54;9.32;;;3.35;;
7487;SDS011;3785;52.260;4.728;2022-11-25T21:03:14;6.25;;;2.88;;
7487;SDS011;3785;52.260;4.728;2022-11-25T21:06:35;10.35;;;3.20;;
7487;SDS011;3785;52.260;4.728;2022-11-25T21:09:57;9.18;;;3.08;;
7487;SDS011;3785;52.260;4.728;2022-11-25T21:17:11;4.70;;;2.38;;
7487;SDS011;3785;52.260;4.728;2022-11-25T21:20:32;4.45;;;2.15;;
7487;SDS011;3785;52.260;4.728;2022-11-25T21:23:53;7.30;;;3.20;;
7487;SDS011;3785;52.260;4.728;2022-11-25T21:27:13;12.63;;;2.80;;
7487;SDS011;3785;52.260;4.728;2022-11-25T21:30:34;7.85;;;2.72;;
7487;SDS011;3785;52.260;4.728;2022-11-25T21:33:56;8.75;;;2.70;;
7487;SDS011;3785;52.260;4.728;2022-11-25T21:37:18;9.07;;;3.15;;
7487;SDS011;3785;52.260;4.728;2022-11-25T21:40:48;6.28;;;2.55;;
7487;SDS011;3785;52.260;4.728;2022-11-25T21:44:14;6.47;;;2.63;;
7487;SDS011;3785;52.260;4.728;2022-11-25T21:47:40;6.10;;;2.15;;
7487;SDS011;3785;52.260;4.728;2022-11-25T21:51:00;5.28;;;2.08;;
7487;SDS011;3785;52.260;4.728;2022-11-25T21:54:22;5.72;;;2.17;;
7487;SDS011;3785;52.260;4.728;2022-11-25T21:57:43;6.85;;;2.88;;
7487;SDS011;3785;52.260;4.728;2022-11-25T22:01:03;8.55;;;3.13;;
7487;SDS011;3785;52.260;4.728;2022-11-25T22:04:24;8.25;;;2.30;;
7487;SDS011;3785;52.260;4.728;2022-11-25T22:07:45;6.82;;;2.55;;
7487;SDS011;3785;52.260;4.728;2022-11-25T22:11:07;8.55;;;2.78;;
7487;SDS011;3785;52.260;4.728;2022-11-25T22:14:31;7.15;;;2.65;;
7487;SDS011;3785;52.260;4.728;2022-11-25T22:17:56;8.35;;;2.70;;
7487;SDS011;3785;52.260;4.728;2022-11-25T22:21:17;6.25;;;2.25;;
7487;SDS011;3785;52.260;4.728;2022-11-25T22:24:37;5.70;;;1.77;;
7487;SDS011;3785;52.260;4.728;2022-11-25T22:27:58;4.18;;;1.90;;
7487;SDS011;3785;52.260;4.728;2022-11-25T22:31:19;7.22;;;2.50;;
7487;SDS011;3785;52.260;4.728;2022-11-25T22:34:40;7.03;;;2.20;;
7487;SDS011;3785;52.260;4.728;2022-11-25T22:38:01;8.35;;;2.13;;
7487;SDS011;3785;52.260;4.728;2022-11-25T22:41:21;5.90;;;1.92;;
7487;SDS011;3785;52.260;4.728;2022-11-25T22:44:43;7.05;;;1.88;;
7487;SDS011;3785;52.260;4.728;2022-11-25T22:48:06;5.10;;;2.72;;
7487;SDS011;3785;52.260;4.728;2022-11-25T22:51:26;8.38;;;2.78;;
7487;SDS011;3785;52.260;4.728;2022-11-25T22:54:47;4.53;;;2.40;;
7487;SDS011;3785;52.260;4.728;2022-11-25T22:58:09;7.25;;;2.40;;
7487;SDS011;3785;52.260;4.728;2022-11-25T23:01:30;8.75;;;2.45;;
7487;SDS011;3785;52.260;4.728;2022-11-25T23:04:52;7.13;;;2.28;;
7487;SDS011;3785;52.260;4.728;2022-11-25T23:08:15;9.30;;;2.65;;
7487;SDS011;3785;52.260;4.728;2022-11-25T23:11:37;7.70;;;3.20;;
7487;SDS011;3785;52.260;4.728;2022-11-25T23:14:58;5.00;;;1.92;;
7487;SDS011;3785;52.260;4.728;2022-11-25T23:18:20;8.43;;;2.10;;